createdAt,value
2018-06-09T00:00:43.207Z,0
2018-06-09T00:01:43.793Z,0
2018-06-09T00:02:44.362Z,0
2018-06-09T00:03:44.911Z,0
2018-06-09T00:04:45.461Z,0
2018-06-09T00:05:46.008Z,0
2018-06-09T00:06:46.558Z,0
2018-06-09T00:07:47.114Z,0
2018-06-09T00:08:47.667Z,0
2018-06-09T00:09:48.221Z,0
2018-06-09T00:10:48.765Z,0
2018-06-09T00:11:49.321Z,0
2018-06-09T00:12:49.874Z,0
2018-06-09T00:13:50.421Z,0
2018-06-09T00:14:50.972Z,0
2018-06-09T00:15:51.526Z,0
2018-06-09T00:16:52.081Z,0
2018-06-09T00:17:52.633Z,0
2018-06-09T00:18:53.184Z,0
2018-06-09T00:19:53.737Z,0
2018-06-09T00:20:54.292Z,0
2018-06-09T00:21:54.843Z,0
2018-06-09T00:22:55.393Z,0
2018-06-09T00:23:55.942Z,0
2018-06-09T00:24:56.491Z,0
2018-06-09T00:25:57.038Z,0
2018-06-09T00:26:57.592Z,0
2018-06-09T00:27:58.143Z,0
2018-06-09T00:28:58.691Z,0
2018-06-09T00:29:59.244Z,0
2018-06-09T00:30:59.793Z,0
2018-06-09T00:32:00.344Z,0
2018-06-09T00:33:00.897Z,0
2018-06-09T00:34:01.446Z,0
2018-06-09T00:35:02.000Z,0
2018-06-09T00:36:02.551Z,0
2018-06-09T00:37:03.101Z,0
2018-06-09T00:38:03.656Z,0
2018-06-09T00:39:04.198Z,0
2018-06-09T00:40:04.747Z,0
2018-06-09T00:41:05.295Z,0
2018-06-09T00:42:05.847Z,0
2018-06-09T00:43:06.399Z,0
2018-06-09T00:44:06.951Z,0
2018-06-09T00:45:07.507Z,0
2018-06-09T00:46:08.060Z,0
2018-06-09T00:47:08.614Z,0
2018-06-09T00:48:09.165Z,0
2018-06-09T00:49:09.719Z,0
2018-06-09T00:50:10.270Z,0
2018-06-09T00:51:10.819Z,0
2018-06-09T00:52:11.371Z,0
2018-06-09T00:53:11.919Z,0
2018-06-09T00:54:12.472Z,0
2018-06-09T00:55:13.024Z,0
2018-06-09T00:56:13.575Z,0
2018-06-09T00:57:14.124Z,0
2018-06-09T00:58:14.671Z,0
2018-06-09T00:59:15.220Z,0
2018-06-09T01:00:15.772Z,0
2018-06-09T01:01:16.327Z,0
2018-06-09T01:02:16.878Z,0
2018-06-09T01:03:17.430Z,0
2018-06-09T01:04:17.977Z,0
2018-06-09T01:05:18.526Z,0
2018-06-09T01:06:19.078Z,0
2018-06-09T01:07:19.632Z,0
2018-06-09T01:08:20.187Z,0
2018-06-09T01:09:20.736Z,0
2018-06-09T01:10:21.284Z,0
2018-06-09T01:11:21.836Z,0
2018-06-09T01:12:22.388Z,0
2018-06-09T01:13:22.933Z,0
2018-06-09T01:14:23.491Z,0
2018-06-09T01:15:24.043Z,0
2018-06-09T01:16:24.592Z,0
2018-06-09T01:17:25.139Z,0
2018-06-09T01:18:25.701Z,0
2018-06-09T01:19:26.242Z,0
2018-06-09T01:20:26.798Z,0
2018-06-09T01:21:27.341Z,0
2018-06-09T01:22:27.893Z,0
2018-06-09T01:23:28.445Z,0
2018-06-09T01:24:28.995Z,0
2018-06-09T01:25:29.546Z,0
2018-06-09T01:26:30.101Z,0
2018-06-09T01:27:30.645Z,0
2018-06-09T01:28:31.196Z,0
2018-06-09T01:29:31.745Z,0
2018-06-09T01:30:32.294Z,0
2018-06-09T01:31:32.848Z,0
2018-06-09T01:32:33.402Z,0
2018-06-09T01:33:33.961Z,0
2018-06-09T01:34:34.508Z,0
2018-06-09T01:35:35.062Z,0
2018-06-09T01:36:35.612Z,0
2018-06-09T01:37:36.159Z,0
2018-06-09T01:38:36.714Z,0
2018-06-09T01:39:37.266Z,0
2018-06-09T01:40:37.824Z,0
2018-06-09T01:41:38.377Z,0
2018-06-09T01:42:38.930Z,0
2018-06-09T01:43:39.475Z,0
2018-06-09T01:44:40.032Z,0
2018-06-09T01:45:40.582Z,0
2018-06-09T01:46:41.137Z,0
2018-06-09T01:47:41.690Z,0
2018-06-09T01:48:42.242Z,0
2018-06-09T01:49:42.793Z,0
2018-06-09T01:50:43.340Z,0
2018-06-09T01:51:43.889Z,0
2018-06-09T01:52:44.436Z,0
2018-06-09T01:53:44.988Z,0
2018-06-09T01:54:45.545Z,0
2018-06-09T01:55:46.097Z,0
2018-06-09T01:56:46.646Z,0
2018-06-09T01:57:47.199Z,0
2018-06-09T01:58:47.756Z,0
2018-06-09T01:59:48.304Z,0
2018-06-09T02:00:48.863Z,0
2018-06-09T02:01:49.409Z,0
2018-06-09T02:02:49.957Z,0
2018-06-09T02:03:50.506Z,0
2018-06-09T02:04:51.056Z,0
2018-06-09T02:05:51.607Z,0
2018-06-09T02:06:52.158Z,0
2018-06-09T02:07:52.714Z,0
2018-06-09T02:08:53.261Z,0
2018-06-09T02:09:53.814Z,0
2018-06-09T02:10:54.365Z,0
2018-06-09T02:11:54.921Z,0
2018-06-09T02:12:55.466Z,0
2018-06-09T02:13:56.017Z,0
2018-06-09T02:14:56.567Z,0
2018-06-09T02:15:57.125Z,0
2018-06-09T02:16:57.679Z,0
2018-06-09T02:17:58.229Z,0
2018-06-09T02:18:58.784Z,0
2018-06-09T02:19:59.335Z,0
2018-06-09T02:20:59.886Z,0
2018-06-09T02:22:00.436Z,0
2018-06-09T02:23:00.991Z,0
2018-06-09T02:24:01.547Z,0
2018-06-09T02:25:02.100Z,0
2018-06-09T02:26:02.642Z,0
2018-06-09T02:27:03.191Z,0
2018-06-09T02:28:03.744Z,0
2018-06-09T02:29:04.298Z,0
2018-06-09T02:30:04.859Z,0
2018-06-09T02:31:05.410Z,0
2018-06-09T02:32:05.951Z,0
2018-06-09T02:33:06.498Z,0
2018-06-09T02:34:07.047Z,0
2018-06-09T02:35:07.595Z,0
2018-06-09T02:36:08.152Z,0
2018-06-09T02:37:08.700Z,0
2018-06-09T02:38:09.250Z,0
2018-06-09T02:39:09.797Z,0
2018-06-09T02:40:10.352Z,0
2018-06-09T02:41:10.905Z,0
2018-06-09T02:42:11.455Z,0
2018-06-09T02:43:12.002Z,0
2018-06-09T02:44:12.567Z,0
2018-06-09T02:45:13.109Z,4
2018-06-09T02:46:13.658Z,4
2018-06-09T02:47:14.208Z,4
2018-06-09T02:48:14.762Z,0
2018-06-09T02:49:15.309Z,4
2018-06-09T02:50:15.862Z,4
2018-06-09T02:51:16.411Z,4
2018-06-09T02:52:16.968Z,8
2018-06-09T02:53:17.511Z,4
2018-06-09T02:54:18.064Z,8
2018-06-09T02:55:18.617Z,8
2018-06-09T02:56:19.165Z,8
2018-06-09T02:57:19.713Z,12
2018-06-09T02:58:20.265Z,12
2018-06-09T02:59:20.815Z,16
2018-06-09T03:00:21.361Z,20
2018-06-09T03:01:21.912Z,20
2018-06-09T03:02:22.462Z,24
2018-06-09T03:03:23.008Z,24
2018-06-09T03:04:23.563Z,28
2018-06-09T03:05:24.108Z,32
2018-06-09T03:06:24.669Z,36
2018-06-09T03:07:25.216Z,40
2018-06-09T03:08:25.771Z,44
2018-06-09T03:09:26.324Z,48
2018-06-09T03:10:26.875Z,52
2018-06-09T03:11:27.426Z,52
2018-06-09T03:12:27.981Z,56
2018-06-09T03:13:28.546Z,60
2018-06-09T03:14:29.084Z,60
2018-06-09T03:15:29.634Z,68
2018-06-09T03:16:30.182Z,76
2018-06-09T03:17:30.735Z,88
2018-06-09T03:18:31.285Z,100
2018-06-09T03:19:31.844Z,112
2018-06-09T03:20:32.394Z,128
2018-06-09T03:21:32.947Z,136
2018-06-09T03:22:33.498Z,140
2018-06-09T03:23:34.049Z,144
2018-06-09T03:24:34.607Z,156
2018-06-09T03:25:35.161Z,176
2018-06-09T03:26:35.708Z,192
2018-06-09T03:27:36.263Z,212
2018-06-09T03:28:36.825Z,224
2018-06-09T03:29:37.375Z,232
2018-06-09T03:30:37.933Z,244
2018-06-09T03:31:38.486Z,260
2018-06-09T03:32:39.067Z,280
2018-06-09T03:33:39.588Z,308
2018-06-09T03:34:40.148Z,332
2018-06-09T03:35:40.698Z,356
2018-06-09T03:36:41.248Z,376
2018-06-09T03:37:41.803Z,408
2018-06-09T03:38:42.355Z,432
2018-06-09T03:39:42.908Z,452
2018-06-09T03:40:43.459Z,484
2018-06-09T03:41:44.014Z,528
2018-06-09T03:42:44.575Z,560
2018-06-09T03:43:45.128Z,592
2018-06-09T03:44:45.678Z,616
2018-06-09T03:45:46.230Z,640
2018-06-09T03:46:46.784Z,656
2018-06-09T03:47:47.339Z,660
2018-06-09T03:48:47.934Z,680
2018-06-09T03:49:48.447Z,708
2018-06-09T03:50:49.003Z,732
2018-06-09T03:51:49.557Z,756
2018-06-09T03:52:50.106Z,764
2018-06-09T03:53:50.664Z,760
2018-06-09T03:54:51.219Z,760
2018-06-09T03:55:51.776Z,776
2018-06-09T03:56:52.323Z,792
2018-06-09T03:57:52.882Z,808
2018-06-09T03:58:53.445Z,824
2018-06-09T03:59:53.990Z,848
2018-06-09T04:00:54.547Z,880
2018-06-09T04:01:55.102Z,912
2018-06-09T04:02:55.656Z,940
2018-06-09T04:03:56.210Z,960
2018-06-09T04:04:56.765Z,996
2018-06-09T04:05:57.317Z,1032
2018-06-09T04:06:57.869Z,1036
2018-06-09T04:07:58.425Z,1004
2018-06-09T04:08:58.985Z,976
2018-06-09T04:09:59.536Z,984
2018-06-09T04:11:00.087Z,1020
2018-06-09T04:12:00.642Z,1112
2018-06-09T04:13:01.198Z,1228
2018-06-09T04:14:01.756Z,1332
2018-06-09T04:15:02.311Z,1404
2018-06-09T04:16:02.977Z,1456
2018-06-09T04:17:03.531Z,1504
2018-06-09T04:18:04.088Z,1548
2018-06-09T04:19:04.663Z,1652
2018-06-09T04:20:05.199Z,1748
2018-06-09T04:21:05.955Z,1852
2018-06-09T04:22:06.511Z,1948
2018-06-09T04:23:07.069Z,2016
2018-06-09T04:24:07.622Z,2156
2018-06-09T04:25:08.176Z,2264
2018-06-09T04:26:08.733Z,2320
2018-06-09T04:27:09.290Z,2384
2018-06-09T04:28:09.843Z,2392
2018-06-09T04:29:10.404Z,2368
2018-06-09T04:30:10.956Z,2380
2018-06-09T04:31:11.509Z,2368
2018-06-09T04:32:12.067Z,2428
2018-06-09T04:33:12.622Z,2428
2018-06-09T04:34:13.178Z,2456
2018-06-09T04:35:13.744Z,2416
2018-06-09T04:36:14.293Z,2376
2018-06-09T04:37:14.844Z,2368
2018-06-09T04:38:15.395Z,2436
2018-06-09T04:39:15.950Z,2520
2018-06-09T04:40:16.509Z,2596
2018-06-09T04:41:17.069Z,2704
2018-06-09T04:42:17.614Z,2828
2018-06-09T04:43:18.166Z,2900
2018-06-09T04:44:18.720Z,2940
2018-06-09T04:45:19.276Z,2948
2018-06-09T04:46:19.834Z,3020
2018-06-09T04:47:20.388Z,3092
2018-06-09T04:48:20.941Z,3188
2018-06-09T04:49:21.603Z,3276
2018-06-09T04:50:22.159Z,3312
2018-06-09T04:51:22.714Z,3404
2018-06-09T04:52:23.274Z,3612
2018-06-09T04:53:23.831Z,3776
2018-06-09T04:54:24.391Z,3764
2018-06-09T04:55:24.942Z,3652
2018-06-09T04:56:25.507Z,3500
2018-06-09T04:57:26.049Z,3376
2018-06-09T04:58:26.654Z,3300
2018-06-09T04:59:27.160Z,3296
2018-06-09T05:00:27.722Z,3340
2018-06-09T05:01:28.273Z,3440
2018-06-09T05:02:28.826Z,3544
2018-06-09T05:03:29.384Z,3580
2018-06-09T05:04:29.940Z,3620
2018-06-09T05:05:30.499Z,3684
2018-06-09T05:06:31.055Z,3644
2018-06-09T05:07:31.606Z,3640
2018-06-09T05:08:32.157Z,3668
2018-06-09T05:09:32.714Z,3668
2018-06-09T05:10:33.274Z,3748
2018-06-09T05:11:33.830Z,3956
2018-06-09T05:12:34.387Z,4116
2018-06-09T05:13:34.944Z,4284
2018-06-09T05:14:35.503Z,4520
2018-06-09T05:15:36.058Z,4860
2018-06-09T05:16:36.619Z,5096
2018-06-09T05:17:37.172Z,5268
2018-06-09T05:18:37.728Z,5368
2018-06-09T05:19:38.284Z,5552
2018-06-09T05:20:38.841Z,5916
2018-06-09T05:21:39.392Z,6356
2018-06-09T05:22:39.949Z,6924
2018-06-09T05:23:40.506Z,7508
2018-06-09T05:24:41.058Z,7548
2018-06-09T05:25:41.610Z,7260
2018-06-09T05:26:42.164Z,6868
2018-06-09T05:27:42.720Z,6492
2018-06-09T05:28:43.277Z,6304
2018-06-09T05:29:43.829Z,6388
2018-06-09T05:30:44.388Z,6580
2018-06-09T05:31:44.943Z,6572
2018-06-09T05:32:45.501Z,6428
2018-06-09T05:33:46.058Z,6096
2018-06-09T05:34:46.620Z,6172
2018-06-09T05:35:47.182Z,6420
2018-06-09T05:36:47.739Z,6600
2018-06-09T05:37:48.295Z,6764
2018-06-09T05:38:48.860Z,7060
2018-06-09T05:39:49.413Z,7276
2018-06-09T05:40:49.973Z,7236
2018-06-09T05:41:50.525Z,6912
2018-06-09T05:42:51.083Z,6204
2018-06-09T05:43:51.640Z,5372
2018-06-09T05:44:52.198Z,4704
2018-06-09T05:45:52.760Z,4388
2018-06-09T05:46:53.314Z,4324
2018-06-09T05:47:53.872Z,4160
2018-06-09T05:48:54.430Z,4136
2018-06-09T05:49:54.983Z,4144
2018-06-09T05:50:55.540Z,4352
2018-06-09T05:51:56.094Z,4716
2018-06-09T05:52:56.645Z,4964
2018-06-09T05:53:57.198Z,5200
2018-06-09T05:54:57.757Z,5416
2018-06-09T05:55:58.316Z,5436
2018-06-09T05:56:58.874Z,5620
2018-06-09T05:57:59.434Z,5828
2018-06-09T05:58:59.994Z,6260
2018-06-09T06:00:00.551Z,6568
2018-06-09T06:01:01.108Z,6552
2018-06-09T06:02:01.673Z,6384
2018-06-09T06:03:02.228Z,5960
2018-06-09T06:04:02.802Z,4992
2018-06-09T06:05:03.330Z,4952
2018-06-09T06:06:03.884Z,5220
2018-06-09T06:07:04.439Z,5712
2018-06-09T06:08:04.999Z,6428
2018-06-09T06:09:05.556Z,6848
2018-06-09T06:10:06.120Z,6500
2018-06-09T06:11:06.674Z,7088
2018-06-09T06:12:07.235Z,7128
2018-06-09T06:13:07.793Z,7160
2018-06-09T06:14:08.346Z,7380
2018-06-09T06:15:08.905Z,7404
2018-06-09T06:16:09.464Z,7112
2018-06-09T06:17:10.023Z,5980
2018-06-09T06:18:10.578Z,5380
2018-06-09T06:19:11.133Z,4984
2018-06-09T06:20:11.687Z,5664
2018-06-09T06:21:12.246Z,7652
2018-06-09T06:22:12.802Z,8912
2018-06-09T06:23:13.362Z,9636
2018-06-09T06:24:13.921Z,10060
2018-06-09T06:25:14.480Z,10156
2018-06-09T06:26:15.035Z,10344
2018-06-09T06:27:15.598Z,10544
2018-06-09T06:28:16.156Z,10656
2018-06-09T06:29:16.711Z,11232
2018-06-09T06:30:17.270Z,10784
2018-06-09T06:31:17.825Z,9648
2018-06-09T06:32:18.386Z,10312
2018-06-09T06:33:18.951Z,11464
2018-06-09T06:34:19.502Z,11876
2018-06-09T06:35:20.063Z,11404
2018-06-09T06:36:20.627Z,11108
2018-06-09T06:37:21.188Z,11496
2018-06-09T06:38:21.741Z,11716
2018-06-09T06:39:22.300Z,11828
2018-06-09T06:40:22.857Z,12064
2018-06-09T06:41:23.417Z,12040
2018-06-09T06:42:23.976Z,12148
2018-06-09T06:43:24.534Z,12396
2018-06-09T06:44:25.090Z,12984
2018-06-09T06:45:25.642Z,14292
2018-06-09T06:46:26.204Z,14472
2018-06-09T06:47:26.753Z,14192
2018-06-09T06:48:27.318Z,15148
2018-06-09T06:49:27.870Z,15128
2018-06-09T06:50:28.431Z,14412
2018-06-09T06:51:28.983Z,14480
2018-06-09T06:52:29.545Z,14744
2018-06-09T06:53:30.105Z,14628
2018-06-09T06:54:30.663Z,14696
2018-06-09T06:55:31.224Z,14900
2018-06-09T06:56:31.823Z,14660
2018-06-09T06:57:32.336Z,15052
2018-06-09T06:58:32.895Z,14848
2018-06-09T06:59:33.456Z,14884
2018-06-09T07:00:34.018Z,14452
2018-06-09T07:01:34.580Z,14376
2018-06-09T07:02:35.140Z,13956
2018-06-09T07:03:35.697Z,13664
2018-06-09T07:04:36.253Z,13568
2018-06-09T07:05:36.820Z,13592
2018-06-09T07:06:37.377Z,13824
2018-06-09T07:07:37.936Z,13644
2018-06-09T07:08:38.506Z,13584
2018-06-09T07:09:39.046Z,13500
2018-06-09T07:10:39.612Z,13560
2018-06-09T07:11:40.167Z,14020
2018-06-09T07:12:40.721Z,14116
2018-06-09T07:13:41.276Z,14780
2018-06-09T07:14:41.836Z,15916
2018-06-09T07:15:42.394Z,16320
2018-06-09T07:16:42.956Z,15440
2018-06-09T07:17:43.515Z,16704
2018-06-09T07:18:44.077Z,16800
2018-06-09T07:19:44.637Z,16616
2018-06-09T07:20:45.202Z,16876
2018-06-09T07:21:45.761Z,17280
2018-06-09T07:22:46.328Z,18008
2018-06-09T07:23:46.886Z,17928
2018-06-09T07:24:47.444Z,18148
2018-06-09T07:25:48.006Z,18132
2018-06-09T07:26:48.563Z,18188
2018-06-09T07:27:49.122Z,17440
2018-06-09T07:28:49.682Z,18564
2018-06-09T07:29:50.239Z,18496
2018-06-09T07:30:50.803Z,18296
2018-06-09T07:31:51.369Z,18200
2018-06-09T07:32:51.932Z,20032
2018-06-09T07:33:52.485Z,21568
2018-06-09T07:34:53.047Z,22432
2018-06-09T07:35:53.600Z,22432
2018-06-09T07:36:54.160Z,22208
2018-06-09T07:37:54.729Z,21760
2018-06-09T07:38:55.281Z,22560
2018-06-09T07:39:55.843Z,23808
2018-06-09T07:40:56.399Z,23904
2018-06-09T07:41:56.959Z,23840
2018-06-09T07:42:57.522Z,23840
2018-06-09T07:43:58.083Z,23264
2018-06-09T07:44:58.643Z,23040
2018-06-09T07:45:59.210Z,23648
2018-06-09T07:46:59.764Z,24288
2018-06-09T07:48:00.378Z,24128
2018-06-09T07:49:00.898Z,23296
2018-06-09T07:50:01.442Z,23072
2018-06-09T07:51:02.009Z,23744
2018-06-09T07:52:02.567Z,24768
2018-06-09T07:53:03.128Z,26752
2018-06-09T07:54:03.703Z,27808
2018-06-09T07:55:04.248Z,27744
2018-06-09T07:56:04.807Z,29056
2018-06-09T07:57:05.382Z,30560
2018-06-09T07:58:05.934Z,29120
2018-06-09T07:59:06.492Z,25600
2018-06-09T08:00:07.058Z,23552
2018-06-09T08:01:07.619Z,23616
2018-06-09T08:02:08.180Z,24928
2018-06-09T08:03:08.737Z,25696
2018-06-09T08:04:09.300Z,24128
2018-06-09T08:05:09.862Z,21728
2018-06-09T08:06:10.426Z,21152
2018-06-09T08:07:10.989Z,23168
2018-06-09T08:08:11.549Z,26912
2018-06-09T08:09:12.110Z,31648
2018-06-09T08:10:12.677Z,35104
2018-06-09T08:11:13.231Z,37120
2018-06-09T08:12:13.791Z,35392
2018-06-09T08:13:14.347Z,31680
2018-06-09T08:14:14.906Z,32256
2018-06-09T08:15:15.463Z,34752
2018-06-09T08:16:16.031Z,37952
2018-06-09T08:17:16.590Z,39872
2018-06-09T08:18:17.149Z,35040
2018-06-09T08:19:17.709Z,31296
2018-06-09T08:20:18.274Z,29280
2018-06-09T08:21:18.839Z,35040
2018-06-09T08:22:19.402Z,42720
2018-06-09T08:23:19.964Z,32000
2018-06-09T08:24:20.527Z,30336
2018-06-09T08:25:21.084Z,34784
2018-06-09T08:26:21.643Z,39776
2018-06-09T08:27:22.209Z,36000
2018-06-09T08:28:22.770Z,36704
2018-06-09T08:29:23.331Z,39904
2018-06-09T08:30:23.899Z,43040
2018-06-09T08:31:24.465Z,46048
2018-06-09T08:32:25.027Z,48672
2018-06-09T08:33:25.598Z,47840
2018-06-09T08:34:26.155Z,43872
2018-06-09T08:35:26.718Z,37952
2018-06-09T08:36:27.338Z,35424
2018-06-09T08:37:27.842Z,27808
2018-06-09T08:38:28.405Z,50592
2018-06-09T08:39:28.971Z,52896
2018-06-09T08:40:29.538Z,43712
2018-06-09T08:41:30.107Z,41664
2018-06-09T08:42:30.671Z,39040
2018-06-09T08:43:31.237Z,40896
2018-06-09T08:44:31.804Z,46592
2018-06-09T08:45:32.371Z,57440
2018-06-09T08:46:32.939Z,53888
2018-06-09T08:47:33.503Z,42816
2018-06-09T08:48:34.063Z,58784
2018-06-09T08:49:34.630Z,45440
2018-06-09T08:50:35.197Z,52320
2018-06-09T08:51:35.756Z,47456
2018-06-09T08:52:36.321Z,42176
2018-06-09T08:53:36.890Z,41632
2018-06-09T08:54:37.493Z,40480
2018-06-09T08:55:38.026Z,46016
2018-06-09T08:56:38.595Z,59808
2018-06-09T08:57:39.157Z,48384
2018-06-09T08:58:39.728Z,45184
2018-06-09T08:59:40.297Z,45696
2018-06-09T09:00:40.910Z,42912
2018-06-09T09:01:41.436Z,47104
2018-06-09T09:02:42.006Z,62432
2018-06-09T09:03:42.570Z,55264
2018-06-09T09:04:43.139Z,59872
2018-06-09T09:05:43.707Z,62784
2018-06-09T09:06:44.276Z,44704
2018-06-09T09:07:44.838Z,47744
2018-06-09T09:08:45.418Z,74656
2018-06-09T09:09:45.977Z,76416
2018-06-09T09:10:46.546Z,51808
2018-06-09T09:11:47.117Z,52896
2018-06-09T09:12:47.684Z,73792
2018-06-09T09:13:48.248Z,45312
2018-06-09T09:14:48.823Z,36192
2018-06-09T09:15:49.385Z,35840
2018-06-09T09:16:49.951Z,42272
2018-06-09T09:17:50.513Z,71264
2018-06-09T09:18:51.081Z,77376
2018-06-09T09:19:51.651Z,77856
2018-06-09T09:20:52.218Z,84896
2018-06-09T09:21:52.782Z,89536
2018-06-09T09:22:53.351Z,85984
2018-06-09T09:23:53.923Z,64064
2018-06-09T09:24:54.481Z,48448
2018-06-09T09:25:55.094Z,76960
2018-06-09T09:26:55.619Z,80960
2018-06-09T09:27:56.192Z,83872
2018-06-09T09:28:56.762Z,82944
2018-06-09T09:29:57.325Z,53728
2018-06-09T09:30:57.899Z,48896
2018-06-09T09:31:58.464Z,65440
2018-06-09T09:32:59.032Z,85440
2018-06-09T09:33:59.605Z,92160
2018-06-09T09:35:00.195Z,83872
2018-06-09T09:36:00.751Z,81120
2018-06-09T09:37:01.315Z,74848
2018-06-09T09:38:01.891Z,62272
2018-06-09T09:39:02.470Z,55040
2018-06-09T09:40:03.036Z,55136
2018-06-09T09:41:03.607Z,59232
2018-06-09T09:42:04.179Z,68544
2018-06-09T09:43:04.742Z,94848
2018-06-09T09:44:05.311Z,96864
2018-06-09T09:45:05.880Z,97024
2018-06-09T09:46:06.450Z,91680
2018-06-09T09:47:07.023Z,88736
2018-06-09T09:48:07.596Z,73920
2018-06-09T09:49:08.165Z,81952
2018-06-09T09:50:08.730Z,94016
2018-06-09T09:51:09.302Z,99840
2018-06-09T09:52:09.874Z,100128
2018-06-09T09:53:10.440Z,79040
2018-06-09T09:54:11.006Z,60928
2018-06-09T09:55:11.580Z,63488
2018-06-09T09:56:12.150Z,61504
2018-06-09T09:57:12.735Z,43584
2018-06-09T09:58:13.293Z,43104
2018-06-09T09:59:13.864Z,53056
2018-06-09T10:00:14.439Z,69696
2018-06-09T10:01:15.006Z,96448
2018-06-09T10:02:15.574Z,99616
2018-06-09T10:03:16.143Z,101248
2018-06-09T10:04:16.715Z,97888
2018-06-09T10:05:17.287Z,84672
2018-06-09T10:06:17.856Z,66592
2018-06-09T10:07:18.431Z,83424
2018-06-09T10:08:19.001Z,94912
2018-06-09T10:09:19.581Z,87232
2018-06-09T10:10:20.150Z,86048
2018-06-09T10:11:20.718Z,51616
2018-06-09T10:12:21.291Z,48800
2018-06-09T10:13:21.864Z,49856
2018-06-09T10:14:22.431Z,46624
2018-06-09T10:15:23.003Z,49856
2018-06-09T10:16:23.576Z,84640
2018-06-09T10:17:24.144Z,79776
2018-06-09T10:18:24.711Z,81920
2018-06-09T10:19:25.278Z,104544
2018-06-09T10:20:25.853Z,108960
2018-06-09T10:21:26.426Z,99072
2018-06-09T10:22:27.000Z,93184
2018-06-09T10:23:27.569Z,61312
2018-06-09T10:24:28.139Z,46848
2018-06-09T10:25:28.719Z,43200
2018-06-09T10:26:29.284Z,41728
2018-06-09T10:27:29.856Z,44416
2018-06-09T10:28:30.426Z,89632
2018-06-09T10:29:30.997Z,98176
2018-06-09T10:30:31.567Z,94944
2018-06-09T10:31:32.188Z,86624
2018-06-09T10:32:32.713Z,100448
2018-06-09T10:33:33.278Z,101536
2018-06-09T10:34:33.844Z,99264
2018-06-09T10:35:34.411Z,102624
2018-06-09T10:36:34.982Z,107968
2018-06-09T10:37:35.554Z,110176
2018-06-09T10:38:36.139Z,111424
2018-06-09T10:39:36.699Z,97504
2018-06-09T10:40:37.266Z,53536
2018-06-09T10:41:37.833Z,48224
2018-06-09T10:42:38.405Z,58912
2018-06-09T10:43:38.971Z,49312
2018-06-09T10:44:39.541Z,73760
2018-06-09T10:45:40.118Z,101152
2018-06-09T10:46:40.691Z,103680
2018-06-09T10:47:41.263Z,104096
2018-06-09T10:48:41.838Z,102848
2018-06-09T10:49:42.414Z,106624
2018-06-09T10:50:42.987Z,108992
2018-06-09T10:51:43.558Z,104512
2018-06-09T10:52:44.129Z,104032
2018-06-09T10:53:44.702Z,59776
2018-06-09T10:54:45.271Z,56384
2018-06-09T10:55:45.845Z,78304
2018-06-09T10:56:46.411Z,97152
2018-06-09T10:57:46.983Z,101920
2018-06-09T10:58:47.552Z,108864
2018-06-09T10:59:48.124Z,103328
2018-06-09T11:00:48.697Z,65184
2018-06-09T11:01:49.265Z,65760
2018-06-09T11:02:49.838Z,50208
2018-06-09T11:03:50.412Z,42336
2018-06-09T11:04:50.983Z,38496
2018-06-09T11:05:51.548Z,38176
2018-06-09T11:06:52.118Z,46816
2018-06-09T11:07:52.683Z,96672
2018-06-09T11:08:53.259Z,101152
2018-06-09T11:09:53.832Z,100896
2018-06-09T11:10:54.405Z,100256
2018-06-09T11:11:54.972Z,98976
2018-06-09T11:12:55.551Z,99392
2018-06-09T11:13:56.125Z,100096
2018-06-09T11:14:56.694Z,107296
2018-06-09T11:15:57.269Z,72128
2018-06-09T11:16:57.829Z,51936
2018-06-09T11:17:58.399Z,45728
2018-06-09T11:18:58.977Z,42912
2018-06-09T11:19:59.552Z,42848
2018-06-09T11:21:00.120Z,51872
2018-06-09T11:22:00.691Z,93248
2018-06-09T11:23:01.258Z,92384
2018-06-09T11:24:01.828Z,96576
2018-06-09T11:25:02.399Z,100352
2018-06-09T11:26:02.967Z,104736
2018-06-09T11:27:03.540Z,108416
2018-06-09T11:28:04.117Z,109792
2018-06-09T11:29:04.686Z,107648
2018-06-09T11:30:05.262Z,105440
2018-06-09T11:31:05.836Z,108704
2018-06-09T11:32:06.410Z,105920
2018-06-09T11:33:06.977Z,106688
2018-06-09T11:34:07.553Z,102752
2018-06-09T11:35:08.124Z,99936
2018-06-09T11:36:08.698Z,104032
2018-06-09T11:37:09.272Z,110080
2018-06-09T11:38:09.854Z,112800
2018-06-09T11:39:54.597Z,106496
2018-06-09T11:40:55.182Z,104288
2018-06-09T11:41:55.788Z,108864
2018-06-09T11:42:56.395Z,106592
2018-06-09T11:43:56.980Z,105568
2018-06-09T11:44:57.545Z,106048
2018-06-09T11:45:58.121Z,109696
2018-06-09T11:46:58.693Z,108896
2018-06-09T11:47:59.268Z,107840
2018-06-09T11:48:59.841Z,108800
2018-06-09T11:50:00.413Z,110592
2018-06-09T11:51:00.988Z,107872
2018-06-09T11:52:01.576Z,110336
2018-06-09T11:53:02.142Z,111392
2018-06-09T11:54:02.740Z,95008
2018-06-09T11:55:03.301Z,89888
2018-06-09T11:56:03.877Z,109184
2018-06-09T11:57:04.454Z,102944
2018-06-09T11:58:05.031Z,72160
2018-06-09T11:59:05.604Z,45984
2018-06-09T12:00:06.180Z,41344
2018-06-09T12:01:06.752Z,39040
2018-06-09T12:02:07.328Z,37760
2018-06-09T12:03:07.897Z,37792
2018-06-09T12:04:08.471Z,39712
2018-06-09T12:05:09.041Z,47936
2018-06-09T12:06:09.623Z,51776
2018-06-09T12:07:10.197Z,53056
2018-06-09T12:08:10.769Z,50080
2018-06-09T12:09:11.343Z,50464
2018-06-09T12:10:11.920Z,52224
2018-06-09T12:11:12.493Z,57600
2018-06-09T12:12:13.066Z,93984
2018-06-09T12:13:13.631Z,96256
2018-06-09T12:14:14.209Z,87136
2018-06-09T12:15:14.782Z,88864
2018-06-09T12:16:15.362Z,87328
2018-06-09T12:17:15.938Z,86880
2018-06-09T12:18:16.543Z,87840
2018-06-09T12:19:17.090Z,89952
2018-06-09T12:20:17.660Z,96640
2018-06-09T12:21:18.227Z,100448
2018-06-09T12:22:18.803Z,103360
2018-06-09T12:23:19.373Z,102304
2018-06-09T12:24:19.948Z,100512
2018-06-09T12:25:20.553Z,103744
2018-06-09T12:26:21.156Z,104512
2018-06-09T12:27:21.696Z,108416
2018-06-09T12:28:22.290Z,107488
2018-06-09T12:29:22.850Z,104064
2018-06-09T12:30:23.420Z,101408
2018-06-09T12:31:23.989Z,99744
2018-06-09T12:32:24.607Z,77056
2018-06-09T12:33:25.134Z,45984
2018-06-09T12:34:25.706Z,42528
2018-06-09T12:35:26.312Z,43072
2018-06-09T12:36:26.861Z,41248
2018-06-09T12:37:27.434Z,41088
2018-06-09T12:38:27.996Z,42080
2018-06-09T12:39:28.664Z,43232
2018-06-09T12:40:29.141Z,45120
2018-06-09T12:41:29.710Z,46656
2018-06-09T12:42:30.272Z,48992
2018-06-09T12:43:30.849Z,54144
2018-06-09T12:44:31.424Z,42912
2018-06-09T12:45:31.994Z,41568
2018-06-09T12:46:32.571Z,42240
2018-06-09T12:47:33.178Z,46976
2018-06-09T12:48:33.819Z,49600
2018-06-09T12:49:34.324Z,51296
2018-06-09T12:50:34.901Z,80256
2018-06-09T12:51:35.494Z,59072
2018-06-09T12:52:36.077Z,42208
2018-06-09T12:53:36.653Z,39648
2018-06-09T12:54:37.227Z,39712
2018-06-09T12:55:37.851Z,41984
2018-06-09T12:56:38.411Z,47424
2018-06-09T12:57:38.977Z,74528
2018-06-09T12:58:39.548Z,81088
2018-06-09T12:59:40.121Z,97312
2018-06-09T13:00:40.699Z,85728
2018-06-09T13:01:41.268Z,79328
2018-06-09T13:02:41.837Z,55040
2018-06-09T13:03:42.403Z,58048
2018-06-09T13:04:42.980Z,79904
2018-06-09T13:05:43.559Z,87424
2018-06-09T13:06:44.125Z,86816
2018-06-09T13:07:44.700Z,89024
2018-06-09T13:08:45.276Z,92352
2018-06-09T13:09:45.855Z,90976
2018-06-09T13:10:46.423Z,85696
2018-06-09T13:11:46.991Z,73440
2018-06-09T13:12:47.577Z,64544
2018-06-09T13:13:48.176Z,76160
2018-06-09T13:14:48.731Z,81568
2018-06-09T13:15:49.317Z,85792
2018-06-09T13:16:49.894Z,92128
2018-06-09T13:17:50.466Z,98208
2018-06-09T13:18:51.090Z,99168
2018-06-09T13:19:51.659Z,91328
2018-06-09T13:20:52.238Z,91136
2018-06-09T13:21:52.816Z,84096
2018-06-09T13:22:53.415Z,89312
2018-06-09T13:23:54.075Z,90560
2018-06-09T13:24:54.735Z,91040
2018-06-09T13:25:55.212Z,89888
2018-06-09T13:26:55.794Z,89696
2018-06-09T13:27:56.360Z,88640
2018-06-09T13:28:56.966Z,86592
2018-06-09T13:29:57.542Z,84544
2018-06-09T13:30:58.117Z,81728